sensor_id;sensor_type;location;lat;lon;timestamp;temperature;humidity
9083;DHT22;4577;48.704;9.000;2023-05-10T00:00:55;14.70;99.90
9083;DHT22;4577;48.704;9.000;2023-05-10T00:15:35;13.60;99.90
9083;DHT22;4577;48.704;9.000;2023-05-10T00:18:07;13.60;99.90
9083;DHT22;4577;48.704;9.000;2023-05-10T00:23:10;13.60;99.90
9083;DHT22;4577;48.704;9.000;2023-05-10T00:30:46;13.60;99.90
9083;DHT22;4577;48.704;9.000;2023-05-10T00:33:11;13.50;99.90
9083;DHT22;4577;48.704;9.000;2023-05-10T00:35:37;13.50;99.90
9083;DHT22;4577;48.704;9.000;2023-05-10T00:42:56;13.40;99.90
9083;DHT22;4577;48.704;9.000;2023-05-10T00:45:22;13.70;99.90
9083;DHT22;4577;48.704;9.000;2023-05-10T00:50:15;13.60;99.90
9083;DHT22;4577;48.704;9.000;2023-05-10T00:52:41;13.50;99.90
9083;DHT22;4577;48.704;9.000;2023-05-10T00:55:09;13.50;99.90
9083;DHT22;4577;48.704;9.000;2023-05-10T00:57:35;13.50;99.90
9083;DHT22;4577;48.704;9.000;2023-05-10T01:00:01;13.60;99.90
9083;DHT22;4577;48.704;9.000;2023-05-10T01:02:28;13.50;99.90
9083;DHT22;4577;48.704;9.000;2023-05-10T01:04:54;13.50;99.90
9083;DHT22;4577;48.704;9.000;2023-05-10T01:07:20;13.40;99.90
9083;DHT22;4577;48.704;9.000;2023-05-10T01:09:46;13.30;99.90
9083;DHT22;4577;48.704;9.000;2023-05-10T01:14:38;13.20;99.90
9083;DHT22;4577;48.704;9.000;2023-05-10T01:17:05;13.20;99.90
9083;DHT22;4577;48.704;9.000;2023-05-10T01:19:33;13.20;99.90
9083;DHT22;4577;48.704;9.000;2023-05-10T01:22:02;13.30;99.90
9083;DHT22;4577;48.704;9.000;2023-05-10T01:30:40;13.20;99.90
9083;DHT22;4577;48.704;9.000;2023-05-10T01:35:46;13.20;99.90
9083;DHT22;4577;48.704;9.000;2023-05-10T01:40:43;13.20;99.90
9083;DHT22;4577;48.704;9.000;2023-05-10T01:43:37;13.30;99.90
9083;DHT22;4577;48.704;9.000;2023-05-10T01:46:09;13.30;99.90
9083;DHT22;4577;48.704;9.000;2023-05-10T01:48:47;13.30;99.90
9083;DHT22;4577;48.704;9.000;2023-05-10T01:51:19;13.20;99.90
9083;DHT22;4577;48.704;9.000;2023-05-10T01:53:46;13.20;99.90
9083;DHT22;4577;48.704;9.000;2023-05-10T01:56:14;13.30;99.90
9083;DHT22;4577;48.704;9.000;2023-05-10T01:58:43;13.20;99.90
9083;DHT22;4577;48.704;9.000;2023-05-10T02:01:11;13.40;99.90
9083;DHT22;4577;48.704;9.000;2023-05-10T02:03:38;13.30;99.90
9083;DHT22;4577;48.704;9.000;2023-05-10T02:06:05;13.30;99.90
9083;DHT22;4577;48.704;9.000;2023-05-10T02:08:31;13.40;99.90
9083;DHT22;4577;48.704;9.000;2023-05-10T02:10:58;13.40;99.90
9083;DHT22;4577;48.704;9.000;2023-05-10T02:13:25;13.40;99.90
9083;DHT22;4577;48.704;9.000;2023-05-10T02:15:53;13.40;99.90
9083;DHT22;4577;48.704;9.000;2023-05-10T02:18:21;13.40;99.90
9083;DHT22;4577;48.704;9.000;2023-05-10T02:20:48;13.50;99.90
9083;DHT22;4577;48.704;9.000;2023-05-10T02:23:14;13.40;99.90
9083;DHT22;4577;48.704;9.000;2023-05-10T02:25:41;13.40;99.90
9083;DHT22;4577;48.704;9.000;2023-05-10T02:28:08;13.30;99.90
9083;DHT22;4577;48.704;9.000;2023-05-10T02:33:04;13.20;99.90
9083;DHT22;4577;48.704;9.000;2023-05-10T02:35:30;13.10;99.90
9083;DHT22;4577;48.704;9.000;2023-05-10T02:37:58;13.10;99.90
9083;DHT22;4577;48.704;9.000;2023-05-10T02:40:25;13.00;99.90
9083;DHT22;4577;48.704;9.000;2023-05-10T02:42:53;13.00;99.90
9083;DHT22;4577;48.704;9.000;2023-05-10T02:45:23;13.20;99.90
9083;DHT22;4577;48.704;9.000;2023-05-10T02:47:50;13.20;99.90
9083;DHT22;4577;48.704;9.000;2023-05-10T02:50:16;13.30;99.90
9083;DHT22;4577;48.704;9.000;2023-05-10T02:52:47;13.10;99.90
9083;DHT22;4577;48.704;9.000;2023-05-10T02:55:16;11.60;99.90
9083;DHT22;4577;48.704;9.000;2023-05-10T02:57:58;13.10;99.90
9083;DHT22;4577;48.704;9.000;2023-05-10T03:00:25;13.10;99.90
9083;DHT22;4577;48.704;9.000;2023-05-10T03:02:52;13.10;99.90
9083;DHT22;4577;48.704;9.000;2023-05-10T03:05:18;13.20;99.90
9083;DHT22;4577;48.704;9.000;2023-05-10T03:07:45;13.40;99.90
9083;DHT22;4577;48.704;9.000;2023-05-10T03:10:10;13.40;99.90
9083;DHT22;4577;48.704;9.000;2023-05-10T03:13:06;13.50;99.90
9083;DHT22;4577;48.704;9.000;2023-05-10T03:15:48;13.50;99.90
9083;DHT22;4577;48.704;9.000;2023-05-10T03:18:22;13.50;99.90
9083;DHT22;4577;48.704;9.000;2023-05-10T03:20:54;13.60;99.90
9083;DHT22;4577;48.704;9.000;2023-05-10T03:23:38;13.60;99.90
9083;DHT22;4577;48.704;9.000;2023-05-10T03:26:06;13.60;99.90
9083;DHT22;4577;48.704;9.000;2023-05-10T03:28:34;13.60;99.90
9083;DHT22;4577;48.704;9.000;2023-05-10T03:31:02;13.50;99.90
9083;DHT22;4577;48.704;9.000;2023-05-10T03:33:28;13.50;99.90
9083;DHT22;4577;48.704;9.000;2023-05-10T03:35:54;13.50;99.90
9083;DHT22;4577;48.704;9.000;2023-05-10T03:38:20;13.90;99.90
9083;DHT22;4577;48.704;9.000;2023-05-10T03:40:45;13.50;99.90
9083;DHT22;4577;48.704;9.000;2023-05-10T03:43:11;13.50;99.90
9083;DHT22;4577;48.704;9.000;2023-05-10T03:48:03;13.50;99.90
9083;DHT22;4577;48.704;9.000;2023-05-10T03:50:29;13.50;99.90
9083;DHT22;4577;48.704;9.000;2023-05-10T03:52:54;13.60;99.90
9083;DHT22;4577;48.704;9.000;2023-05-10T03:57:47;13.50;99.90
9083;DHT22;4577;48.704;9.000;2023-05-10T04:00:15;13.30;99.90
9083;DHT22;4577;48.704;9.000;2023-05-10T04:05:07;13.40;99.90
9083;DHT22;4577;48.704;9.000;2023-05-10T04:07:33;13.30;99.90
9083;DHT22;4577;48.704;9.000;2023-05-10T04:17:17;13.30;99.90
9083;DHT22;4577;48.704;9.000;2023-05-10T04:22:09;13.30;99.90
9083;DHT22;4577;48.704;9.000;2023-05-10T04:24:34;13.30;99.90
9083;DHT22;4577;48.704;9.000;2023-05-10T04:29:26;13.30;99.90
9083;DHT22;4577;48.704;9.000;2023-05-10T04:34:20;13.30;99.90
9083;DHT22;4577;48.704;9.000;2023-05-10T04:36:46;13.30;99.90
9083;DHT22;4577;48.704;9.000;2023-05-10T04:41:39;13.20;99.90
9083;DHT22;4577;48.704;9.000;2023-05-10T04:44:05;13.30;99.90
9083;DHT22;4577;48.704;9.000;2023-05-10T04:46:30;13.30;99.90
9083;DHT22;4577;48.704;9.000;2023-05-10T04:51:22;13.40;99.90
9083;DHT22;4577;48.704;9.000;2023-05-10T04:53:48;13.30;99.90
9083;DHT22;4577;48.704;9.000;2023-05-10T05:01:07;13.40;99.90
9083;DHT22;4577;48.704;9.000;2023-05-10T05:03:33;13.40;99.90
9083;DHT22;4577;48.704;9.000;2023-05-10T05:05:59;13.40;99.90
9083;DHT22;4577;48.704;9.000;2023-05-10T05:08:25;13.40;99.90
9083;DHT22;4577;48.704;9.000;2023-05-10T05:18:09;13.40;99.90
9083;DHT22;4577;48.704;9.000;2023-05-10T05:23:01;13.40;99.90
9083;DHT22;4577;48.704;9.000;2023-05-10T05:27:53;13.40;99.90
9083;DHT22;4577;48.704;9.000;2023-05-10T05:30:19;13.40;99.90
9083;DHT22;4577;48.704;9.000;2023-05-10T05:32:45;13.40;99.90
9083;DHT22;4577;48.704;9.000;2023-05-10T05:35:12;13.70;99.90
9083;DHT22;4577;48.704;9.000;2023-05-10T05:40:05;13.50;99.90
9083;DHT22;4577;48.704;9.000;2023-05-10T05:42:31;13.50;99.90
9083;DHT22;4577;48.704;9.000;2023-05-10T05:44:57;13.50;99.90
9083;DHT22;4577;48.704;9.000;2023-05-10T05:47:23;13.50;99.90
9083;DHT22;4577;48.704;9.000;2023-05-10T05:49:48;13.50;99.90
9083;DHT22;4577;48.704;9.000;2023-05-10T05:52:14;13.50;99.90
9083;DHT22;4577;48.704;9.000;2023-05-10T05:54:40;13.50;99.90
9083;DHT22;4577;48.704;9.000;2023-05-10T05:57:06;13.50;99.90
9083;DHT22;4577;48.704;9.000;2023-05-10T05:59:31;13.60;99.90
9083;DHT22;4577;48.704;9.000;2023-05-10T06:01:57;14.20;99.90
9083;DHT22;4577;48.704;9.000;2023-05-10T06:04:23;13.60;99.90
9083;DHT22;4577;48.704;9.000;2023-05-10T06:06:48;13.60;99.90
9083;DHT22;4577;48.704;9.000;2023-05-10T06:09:14;13.50;99.90
9083;DHT22;4577;48.704;9.000;2023-05-10T06:11:40;13.80;99.90
9083;DHT22;4577;48.704;9.000;2023-05-10T06:16:34;13.50;99.90
9083;DHT22;4577;48.704;9.000;2023-05-10T06:18:59;13.50;99.90
9083;DHT22;4577;48.704;9.000;2023-05-10T06:21:25;13.50;99.90
9083;DHT22;4577;48.704;9.000;2023-05-10T06:23:51;12.50;99.90
9083;DHT22;4577;48.704;9.000;2023-05-10T06:28:43;13.60;99.90
9083;DHT22;4577;48.704;9.000;2023-05-10T06:31:08;13.30;99.90
9083;DHT22;4577;48.704;9.000;2023-05-10T06:33:34;13.30;99.90
9083;DHT22;4577;48.704;9.000;2023-05-10T06:38:27;13.30;99.90
9083;DHT22;4577;48.704;9.000;2023-05-10T06:40:52;13.30;99.90
9083;DHT22;4577;48.704;9.000;2023-05-10T06:43:18;13.20;99.90
9083;DHT22;4577;48.704;9.000;2023-05-10T06:45:44;13.20;99.90
9083;DHT22;4577;48.704;9.000;2023-05-10T06:48:10;13.30;99.90
9083;DHT22;4577;48.704;9.000;2023-05-10T06:50:35;13.20;99.90
9083;DHT22;4577;48.704;9.000;2023-05-10T06:55:27;13.50;99.90
9083;DHT22;4577;48.704;9.000;2023-05-10T06:57:53;13.60;99.90
9083;DHT22;4577;48.704;9.000;2023-05-10T07:00:19;13.70;99.90
9083;DHT22;4577;48.704;9.000;2023-05-10T07:02:46;13.80;99.90
9083;DHT22;4577;48.704;9.000;2023-05-10T07:05:12;13.90;99.90
9083;DHT22;4577;48.704;9.000;2023-05-10T07:07:37;13.90;99.90
9083;DHT22;4577;48.704;9.000;2023-05-10T07:10:03;14.00;99.90
9083;DHT22;4577;48.704;9.000;2023-05-10T07:12:29;14.00;99.90
9083;DHT22;4577;48.704;9.000;2023-05-10T07:14:55;14.10;99.90
9083;DHT22;4577;48.704;9.000;2023-05-10T07:17:20;14.10;99.90
9083;DHT22;4577;48.704;9.000;2023-05-10T07:19:46;14.00;99.90
9083;DHT22;4577;48.704;9.000;2023-05-10T07:22:12;14.10;99.90
9083;DHT22;4577;48.704;9.000;2023-05-10T07:24:38;14.20;99.90
9083;DHT22;4577;48.704;9.000;2023-05-10T07:27:03;14.20;99.90
9083;DHT22;4577;48.704;9.000;2023-05-10T07:29:30;14.20;99.90
9083;DHT22;4577;48.704;9.000;2023-05-10T07:31:55;14.10;99.90
9083;DHT22;4577;48.704;9.000;2023-05-10T07:34:21;14.10;99.90
9083;DHT22;4577;48.704;9.000;2023-05-10T07:36:47;14.20;99.90
9083;DHT22;4577;48.704;9.000;2023-05-10T07:39:13;14.30;99.90
9083;DHT22;4577;48.704;9.000;2023-05-10T07:41:38;14.30;99.90
9083;DHT22;4577;48.704;9.000;2023-05-10T07:44:05;14.40;99.80
9083;DHT22;4577;48.704;9.000;2023-05-10T07:46:31;14.40;99.90
9083;DHT22;4577;48.704;9.000;2023-05-10T07:48:56;14.40;99.20
9083;DHT22;4577;48.704;9.000;2023-05-10T07:51:22;14.40;98.90
9083;DHT22;4577;48.704;9.000;2023-05-10T07:53:48;14.40;98.70
9083;DHT22;4577;48.704;9.000;2023-05-10T07:56:27;14.40;98.60
9083;DHT22;4577;48.704;9.000;2023-05-10T07:59:02;14.40;98.30
9083;DHT22;4577;48.704;9.000;2023-05-10T08:01:33;15.00;98.20
9083;DHT22;4577;48.704;9.000;2023-05-10T08:04:00;14.50;98.00
9083;DHT22;4577;48.704;9.000;2023-05-10T08:06:26;14.50;97.70
9083;DHT22;4577;48.704;9.000;2023-05-10T08:08:55;14.40;97.60
9083;DHT22;4577;48.704;9.000;2023-05-10T08:11:22;14.40;98.10
9083;DHT22;4577;48.704;9.000;2023-05-10T08:13:49;14.50;98.40
9083;DHT22;4577;48.704;9.000;2023-05-10T08:16:15;14.50;98.00
9083;DHT22;4577;48.704;9.000;2023-05-10T08:18:41;14.50;97.60
9083;DHT22;4577;48.704;9.000;2023-05-10T08:21:07;14.50;97.30
9083;DHT22;4577;48.704;9.000;2023-05-10T08:23:33;14.40;97.20
9083;DHT22;4577;48.704;9.000;2023-05-10T08:25:59;14.50;97.30
9083;DHT22;4577;48.704;9.000;2023-05-10T08:28:24;14.50;97.30
9083;DHT22;4577;48.704;9.000;2023-05-10T08:30:50;14.40;97.00
9083;DHT22;4577;48.704;9.000;2023-05-10T08:33:18;14.50;97.00
9083;DHT22;4577;48.704;9.000;2023-05-10T08:35:43;14.30;95.40
9083;DHT22;4577;48.704;9.000;2023-05-10T08:38:09;14.20;94.90
9083;DHT22;4577;48.704;9.000;2023-05-10T08:40:37;14.30;95.80
9083;DHT22;4577;48.704;9.000;2023-05-10T08:43:06;14.10;94.40
9083;DHT22;4577;48.704;9.000;2023-05-10T08:45:37;14.10;94.70
9083;DHT22;4577;48.704;9.000;2023-05-10T08:48:05;14.10;93.50
9083;DHT22;4577;48.704;9.000;2023-05-10T08:50:32;14.10;93.20
9083;DHT22;4577;48.704;9.000;2023-05-10T08:53:00;14.10;93.30
9083;DHT22;4577;48.704;9.000;2023-05-10T08:55:29;14.20;93.60
9083;DHT22;4577;48.704;9.000;2023-05-10T08:57:55;14.20;93.20
9083;DHT22;4577;48.704;9.000;2023-05-10T09:00:21;14.10;93.10
9083;DHT22;4577;48.704;9.000;2023-05-10T09:02:49;14.20;93.20
9083;DHT22;4577;48.704;9.000;2023-05-10T09:05:15;14.20;93.00
9083;DHT22;4577;48.704;9.000;2023-05-10T09:07:41;14.30;93.00
9083;DHT22;4577;48.704;9.000;2023-05-10T09:10:09;14.30;93.40
9083;DHT22;4577;48.704;9.000;2023-05-10T09:12:35;14.30;93.10
9083;DHT22;4577;48.704;9.000;2023-05-10T09:15:01;14.40;92.50
9083;DHT22;4577;48.704;9.000;2023-05-10T09:17:28;14.40;93.10
9083;DHT22;4577;48.704;9.000;2023-05-10T09:19:59;14.30;92.40
9083;DHT22;4577;48.704;9.000;2023-05-10T09:22:25;14.30;92.50
9083;DHT22;4577;48.704;9.000;2023-05-10T09:25:10;14.40;92.00
9083;DHT22;4577;48.704;9.000;2023-05-10T09:27:37;14.50;92.10
9083;DHT22;4577;48.704;9.000;2023-05-10T09:30:04;14.50;92.10
9083;DHT22;4577;48.704;9.000;2023-05-10T09:32:41;14.50;92.20
9083;DHT22;4577;48.704;9.000;2023-05-10T09:35:11;14.70;92.70
9083;DHT22;4577;48.704;9.000;2023-05-10T09:37:39;14.70;91.90
9083;DHT22;4577;48.704;9.000;2023-05-10T09:40:13;14.60;91.70
9083;DHT22;4577;48.704;9.000;2023-05-10T09:42:40;14.70;90.30
9083;DHT22;4577;48.704;9.000;2023-05-10T09:45:06;14.70;90.50
9083;DHT22;4577;48.704;9.000;2023-05-10T09:47:35;14.70;90.60
9083;DHT22;4577;48.704;9.000;2023-05-10T09:50:02;14.80;90.20
9083;DHT22;4577;48.704;9.000;2023-05-10T09:55:23;14.80;90.20
9083;DHT22;4577;48.704;9.000;2023-05-10T09:57:58;14.80;87.50
9083;DHT22;4577;48.704;9.000;2023-05-10T10:00:26;14.80;87.30
9083;DHT22;4577;48.704;9.000;2023-05-10T10:02:57;14.90;87.60
9083;DHT22;4577;48.704;9.000;2023-05-10T10:05:34;14.90;87.10
9083;DHT22;4577;48.704;9.000;2023-05-10T10:08:03;14.80;87.40
9083;DHT22;4577;48.704;9.000;2023-05-10T10:10:31;14.80;86.80
9083;DHT22;4577;48.704;9.000;2023-05-10T10:12:57;14.80;87.40
9083;DHT22;4577;48.704;9.000;2023-05-10T10:15:23;14.90;86.70
9083;DHT22;4577;48.704;9.000;2023-05-10T10:17:50;15.00;87.60
9083;DHT22;4577;48.704;9.000;2023-05-10T10:20:17;15.10;86.30
9083;DHT22;4577;48.704;9.000;2023-05-10T10:22:43;15.10;86.60
9083;DHT22;4577;48.704;9.000;2023-05-10T10:25:11;15.20;87.10
9083;DHT22;4577;48.704;9.000;2023-05-10T10:28:24;15.30;85.90
9083;DHT22;4577;48.704;9.000;2023-05-10T10:35:54;15.50;84.70
9083;DHT22;4577;48.704;9.000;2023-05-10T10:38:20;15.50;84.20
9083;DHT22;4577;48.704;9.000;2023-05-10T10:40:47;15.40;83.90
9083;DHT22;4577;48.704;9.000;2023-05-10T10:43:26;15.20;83.00
9083;DHT22;4577;48.704;9.000;2023-05-10T10:46:12;14.50;75.40
9083;DHT22;4577;48.704;9.000;2023-05-10T10:48:46;14.20;78.20
9083;DHT22;4577;48.704;9.000;2023-05-10T10:51:13;14.00;79.80
9083;DHT22;4577;48.704;9.000;2023-05-10T10:53:40;13.70;80.40
9083;DHT22;4577;48.704;9.000;2023-05-10T10:56:08;13.70;82.40
9083;DHT22;4577;48.704;9.000;2023-05-10T10:58:36;13.60;85.20
9083;DHT22;4577;48.704;9.000;2023-05-10T11:01:18;13.50;85.70
9083;DHT22;4577;48.704;9.000;2023-05-10T11:06:29;13.50;88.70
9083;DHT22;4577;48.704;9.000;2023-05-10T11:08:57;13.50;89.80
9083;DHT22;4577;48.704;9.000;2023-05-10T11:11:23;13.60;89.10
9083;DHT22;4577;48.704;9.000;2023-05-10T11:13:49;13.60;88.00
9083;DHT22;4577;48.704;9.000;2023-05-10T11:16:24;13.80;88.90
9083;DHT22;4577;48.704;9.000;2023-05-10T11:18:54;13.90;88.60
9083;DHT22;4577;48.704;9.000;2023-05-10T11:21:22;13.90;88.80
9083;DHT22;4577;48.704;9.000;2023-05-10T11:23:55;13.90;88.90
9083;DHT22;4577;48.704;9.000;2023-05-10T11:26:35;13.70;87.80
9083;DHT22;4577;48.704;9.000;2023-05-10T11:29:02;13.70;87.80
9083;DHT22;4577;48.704;9.000;2023-05-10T11:31:28;13.80;88.80
9083;DHT22;4577;48.704;9.000;2023-05-10T11:33:55;13.90;87.70
9083;DHT22;4577;48.704;9.000;2023-05-10T11:36:28;14.00;87.10
9083;DHT22;4577;48.704;9.000;2023-05-10T11:38:55;13.90;85.90
9083;DHT22;4577;48.704;9.000;2023-05-10T11:41:22;14.00;86.50
9083;DHT22;4577;48.704;9.000;2023-05-10T11:43:52;14.20;86.90
9083;DHT22;4577;48.704;9.000;2023-05-10T11:46:20;14.40;87.10
9083;DHT22;4577;48.704;9.000;2023-05-10T11:48:47;14.40;86.30
9083;DHT22;4577;48.704;9.000;2023-05-10T11:51:14;14.40;86.90
9083;DHT22;4577;48.704;9.000;2023-05-10T11:53:40;14.50;87.30
9083;DHT22;4577;48.704;9.000;2023-05-10T11:56:07;14.70;86.30
9083;DHT22;4577;48.704;9.000;2023-05-10T11:58:33;14.60;84.40
9083;DHT22;4577;48.704;9.000;2023-05-10T12:01:00;14.70;84.80
9083;DHT22;4577;48.704;9.000;2023-05-10T12:03:27;14.80;84.30
9083;DHT22;4577;48.704;9.000;2023-05-10T12:05:54;14.70;83.00
9083;DHT22;4577;48.704;9.000;2023-05-10T12:08:26;14.70;83.40
9083;DHT22;4577;48.704;9.000;2023-05-10T12:10:53;14.80;84.70
9083;DHT22;4577;48.704;9.000;2023-05-10T12:13:20;14.80;83.70
9083;DHT22;4577;48.704;9.000;2023-05-10T12:15:46;14.80;84.10
9083;DHT22;4577;48.704;9.000;2023-05-10T12:18:13;14.80;84.10
9083;DHT22;4577;48.704;9.000;2023-05-10T12:20:39;14.90;85.10
9083;DHT22;4577;48.704;9.000;2023-05-10T12:23:08;14.90;83.70
9083;DHT22;4577;48.704;9.000;2023-05-10T12:25:36;14.70;84.20
9083;DHT22;4577;48.704;9.000;2023-05-10T12:28:07;14.60;84.50
9083;DHT22;4577;48.704;9.000;2023-05-10T12:30:34;14.60;85.10
9083;DHT22;4577;48.704;9.000;2023-05-10T12:33:08;14.60;83.60
9083;DHT22;4577;48.704;9.000;2023-05-10T12:35:44;14.60;84.00
9083;DHT22;4577;48.704;9.000;2023-05-10T12:38:31;14.60;82.60
9083;DHT22;4577;48.704;9.000;2023-05-10T12:41:04;14.60;82.50
9083;DHT22;4577;48.704;9.000;2023-05-10T12:43:32;14.70;82.80
9083;DHT22;4577;48.704;9.000;2023-05-10T12:45:58;14.70;82.50
9083;DHT22;4577;48.704;9.000;2023-05-10T12:48:23;14.70;82.60
9083;DHT22;4577;48.704;9.000;2023-05-10T12:50:49;14.80;80.40
9083;DHT22;4577;48.704;9.000;2023-05-10T12:53:15;14.90;80.00
9083;DHT22;4577;48.704;9.000;2023-05-10T12:55:42;14.90;79.70
9083;DHT22;4577;48.704;9.000;2023-05-10T12:58:08;14.90;79.50
9083;DHT22;4577;48.704;9.000;2023-05-10T13:00:34;15.00;80.40
9083;DHT22;4577;48.704;9.000;2023-05-10T13:02:59;15.10;80.70
9083;DHT22;4577;48.704;9.000;2023-05-10T13:05:25;15.10;80.20
9083;DHT22;4577;48.704;9.000;2023-05-10T13:07:51;15.30;79.70
9083;DHT22;4577;48.704;9.000;2023-05-10T13:10:16;15.10;79.10
9083;DHT22;4577;48.704;9.000;2023-05-10T13:12:42;15.10;79.70
9083;DHT22;4577;48.704;9.000;2023-05-10T13:15:08;15.10;79.90
9083;DHT22;4577;48.704;9.000;2023-05-10T13:17:34;15.00;80.50
9083;DHT22;4577;48.704;9.000;2023-05-10T13:19:59;15.00;81.10
9083;DHT22;4577;48.704;9.000;2023-05-10T13:22:25;15.00;78.60
9083;DHT22;4577;48.704;9.000;2023-05-10T13:24:51;15.00;78.30
9083;DHT22;4577;48.704;9.000;2023-05-10T13:27:16;15.10;76.50
9083;DHT22;4577;48.704;9.000;2023-05-10T13:29:42;15.10;73.80
9083;DHT22;4577;48.704;9.000;2023-05-10T13:32:07;15.10;73.10
9083;DHT22;4577;48.704;9.000;2023-05-10T13:34:33;15.20;71.60
9083;DHT22;4577;48.704;9.000;2023-05-10T13:37:01;15.20;73.50
9083;DHT22;4577;48.704;9.000;2023-05-10T13:39:27;13.60;72.50
9083;DHT22;4577;48.704;9.000;2023-05-10T13:41:52;15.40;73.00
9083;DHT22;4577;48.704;9.000;2023-05-10T13:44:20;15.50;75.90
9083;DHT22;4577;48.704;9.000;2023-05-10T13:46:45;15.60;76.10
9083;DHT22;4577;48.704;9.000;2023-05-10T13:49:11;15.70;75.50
9083;DHT22;4577;48.704;9.000;2023-05-10T13:51:37;15.80;73.50
9083;DHT22;4577;48.704;9.000;2023-05-10T13:54:03;16.00;71.10
9083;DHT22;4577;48.704;9.000;2023-05-10T13:56:29;16.00;70.70
9083;DHT22;4577;48.704;9.000;2023-05-10T13:58:56;15.70;68.10
9083;DHT22;4577;48.704;9.000;2023-05-10T14:01:22;15.50;68.90
9083;DHT22;4577;48.704;9.000;2023-05-10T14:03:48;15.40;69.20
9083;DHT22;4577;48.704;9.000;2023-05-10T14:06:14;15.40;69.40
9083;DHT22;4577;48.704;9.000;2023-05-10T14:08:40;15.40;69.60
9083;DHT22;4577;48.704;9.000;2023-05-10T14:11:05;15.40;69.60
9083;DHT22;4577;48.704;9.000;2023-05-10T14:13:31;15.40;69.50
9083;DHT22;4577;48.704;9.000;2023-05-10T14:15:57;15.40;70.80
9083;DHT22;4577;48.704;9.000;2023-05-10T14:18:24;15.50;70.20
9083;DHT22;4577;48.704;9.000;2023-05-10T14:20:49;15.50;69.90
9083;DHT22;4577;48.704;9.000;2023-05-10T14:23:15;15.60;70.00
9083;DHT22;4577;48.704;9.000;2023-05-10T14:25:41;15.50;70.60
9083;DHT22;4577;48.704;9.000;2023-05-10T14:28:07;15.60;71.30
9083;DHT22;4577;48.704;9.000;2023-05-10T14:30:33;15.50;70.50
9083;DHT22;4577;48.704;9.000;2023-05-10T14:33:01;15.50;71.10
9083;DHT22;4577;48.704;9.000;2023-05-10T14:35:27;15.50;70.20
9083;DHT22;4577;48.704;9.000;2023-05-10T14:37:53;15.40;70.10
9083;DHT22;4577;48.704;9.000;2023-05-10T14:40:19;15.40;70.40
9083;DHT22;4577;48.704;9.000;2023-05-10T14:42:44;15.40;69.90
9083;DHT22;4577;48.704;9.000;2023-05-10T14:45:10;15.50;70.20
9083;DHT22;4577;48.704;9.000;2023-05-10T14:47:37;15.50;68.70
9083;DHT22;4577;48.704;9.000;2023-05-10T14:50:03;15.50;69.10
9083;DHT22;4577;48.704;9.000;2023-05-10T14:52:29;15.50;69.60
9083;DHT22;4577;48.704;9.000;2023-05-10T14:54:55;15.50;70.90
9083;DHT22;4577;48.704;9.000;2023-05-10T14:57:20;15.50;71.70
9083;DHT22;4577;48.704;9.000;2023-05-10T14:59:46;15.50;71.70
9083;DHT22;4577;48.704;9.000;2023-05-10T15:02:11;15.50;71.90
9083;DHT22;4577;48.704;9.000;2023-05-10T15:04:38;15.50;72.20
9083;DHT22;4577;48.704;9.000;2023-05-10T15:07:03;15.60;71.70
9083;DHT22;4577;48.704;9.000;2023-05-10T15:09:29;15.60;71.60
9083;DHT22;4577;48.704;9.000;2023-05-10T15:11:55;15.50;71.30
9083;DHT22;4577;48.704;9.000;2023-05-10T15:14:21;15.60;71.40
9083;DHT22;4577;48.704;9.000;2023-05-10T15:16:47;15.60;71.80
9083;DHT22;4577;48.704;9.000;2023-05-10T15:19:13;15.70;72.40
9083;DHT22;4577;48.704;9.000;2023-05-10T15:21:38;15.60;71.60
9083;DHT22;4577;48.704;9.000;2023-05-10T15:24:07;15.50;70.50
9083;DHT22;4577;48.704;9.000;2023-05-10T15:26:33;15.60;71.50
9083;DHT22;4577;48.704;9.000;2023-05-10T15:28:58;15.60;69.60
9083;DHT22;4577;48.704;9.000;2023-05-10T15:31:24;15.50;70.30
9083;DHT22;4577;48.704;9.000;2023-05-10T15:33:50;15.50;70.00
9083;DHT22;4577;48.704;9.000;2023-05-10T15:36:16;15.50;69.50
9083;DHT22;4577;48.704;9.000;2023-05-10T15:38:43;15.50;70.10
9083;DHT22;4577;48.704;9.000;2023-05-10T15:41:09;15.60;70.20
9083;DHT22;4577;48.704;9.000;2023-05-10T15:43:34;15.60;70.70
9083;DHT22;4577;48.704;9.000;2023-05-10T15:46:01;15.70;69.90
9083;DHT22;4577;48.704;9.000;2023-05-10T15:48:26;15.60;70.10
9083;DHT22;4577;48.704;9.000;2023-05-10T15:50:52;15.60;69.70
9083;DHT22;4577;48.704;9.000;2023-05-10T15:53:18;15.50;69.40
9083;DHT22;4577;48.704;9.000;2023-05-10T15:55:44;15.50;69.80
9083;DHT22;4577;48.704;9.000;2023-05-10T15:58:09;15.60;69.90
9083;DHT22;4577;48.704;9.000;2023-05-10T16:00:35;15.60;68.10
9083;DHT22;4577;48.704;9.000;2023-05-10T16:03:01;15.50;67.80
9083;DHT22;4577;48.704;9.000;2023-05-10T16:05:27;15.50;69.20
9083;DHT22;4577;48.704;9.000;2023-05-10T16:07:56;15.50;68.60
9083;DHT22;4577;48.704;9.000;2023-05-10T16:10:22;15.40;68.90
9083;DHT22;4577;48.704;9.000;2023-05-10T16:12:47;15.40;68.90
9083;DHT22;4577;48.704;9.000;2023-05-10T16:15:13;15.20;69.10
9083;DHT22;4577;48.704;9.000;2023-05-10T16:17:39;15.30;69.60
9083;DHT22;4577;48.704;9.000;2023-05-10T16:20:05;15.20;70.00
9083;DHT22;4577;48.704;9.000;2023-05-10T16:22:31;15.20;70.00
9083;DHT22;4577;48.704;9.000;2023-05-10T16:24:57;15.20;69.40
9083;DHT22;4577;48.704;9.000;2023-05-10T16:27:23;15.20;70.00
9083;DHT22;4577;48.704;9.000;2023-05-10T16:29:49;15.20;70.00
9083;DHT22;4577;48.704;9.000;2023-05-10T16:32:15;15.20;69.70
9083;DHT22;4577;48.704;9.000;2023-05-10T16:34:40;15.10;68.90
9083;DHT22;4577;48.704;9.000;2023-05-10T16:37:06;15.00;68.90
9083;DHT22;4577;48.704;9.000;2023-05-10T16:39:31;15.00;70.00
9083;DHT22;4577;48.704;9.000;2023-05-10T16:41:57;15.00;70.20
9083;DHT22;4577;48.704;9.000;2023-05-10T16:44:23;15.00;70.60
9083;DHT22;4577;48.704;9.000;2023-05-10T16:46:48;14.90;70.20
9083;DHT22;4577;48.704;9.000;2023-05-10T16:49:14;14.90;70.70
9083;DHT22;4577;48.704;9.000;2023-05-10T16:51:40;14.80;71.20
9083;DHT22;4577;48.704;9.000;2023-05-10T16:54:05;14.80;71.30
9083;DHT22;4577;48.704;9.000;2023-05-10T16:56:31;14.90;72.00
9083;DHT22;4577;48.704;9.000;2023-05-10T16:58:57;14.90;72.10
9083;DHT22;4577;48.704;9.000;2023-05-10T17:01:23;14.90;71.70
9083;DHT22;4577;48.704;9.000;2023-05-10T17:03:48;14.90;71.40
9083;DHT22;4577;48.704;9.000;2023-05-10T17:06:14;14.90;71.20
9083;DHT22;4577;48.704;9.000;2023-05-10T17:08:39;14.80;72.70
9083;DHT22;4577;48.704;9.000;2023-05-10T17:11:05;14.80;73.30
9083;DHT22;4577;48.704;9.000;2023-05-10T17:13:31;14.90;74.30
9083;DHT22;4577;48.704;9.000;2023-05-10T17:15:56;14.90;75.10
9083;DHT22;4577;48.704;9.000;2023-05-10T17:18:22;15.00;75.50
9083;DHT22;4577;48.704;9.000;2023-05-10T17:20:49;15.00;75.70
9083;DHT22;4577;48.704;9.000;2023-05-10T17:23:14;15.10;75.60
9083;DHT22;4577;48.704;9.000;2023-05-10T17:25:41;15.10;74.60
9083;DHT22;4577;48.704;9.000;2023-05-10T17:28:07;15.00;74.60
9083;DHT22;4577;48.704;9.000;2023-05-10T17:30:32;15.00;74.00
9083;DHT22;4577;48.704;9.000;2023-05-10T17:32:58;14.90;75.20
9083;DHT22;4577;48.704;9.000;2023-05-10T17:35:24;14.80;75.80
9083;DHT22;4577;48.704;9.000;2023-05-10T17:37:50;14.70;77.40
9083;DHT22;4577;48.704;9.000;2023-05-10T17:40:16;14.70;77.30
9083;DHT22;4577;48.704;9.000;2023-05-10T17:42:42;14.70;77.60
9083;DHT22;4577;48.704;9.000;2023-05-10T17:45:09;14.60;77.70
9083;DHT22;4577;48.704;9.000;2023-05-10T17:47:34;14.60;76.90
9083;DHT22;4577;48.704;9.000;2023-05-10T17:50:00;14.60;77.60
9083;DHT22;4577;48.704;9.000;2023-05-10T17:52:26;14.60;78.00